sensor_id;sensor_type;location;lat;lon;timestamp;pressure;altitude;pressure_sealevel;temperature;humidity
38880;BME280;25887;30.194;-97.880;2023-01-20T00:02:17;98810.28;;;20.16;28.13
38880;BME280;25887;30.194;-97.880;2023-01-20T00:04:42;98811.34;;;20.11;28.22
38880;BME280;25887;30.194;-97.880;2023-01-20T00:07:08;98823.59;;;20.07;28.25
38880;BME280;25887;30.194;-97.880;2023-01-20T00:09:34;98829.78;;;20.04;28.20
38880;BME280;25887;30.194;-97.880;2023-01-20T00:12:00;98829.94;;;20.00;28.30
38880;BME280;25887;30.194;-97.880;2023-01-20T00:14:26;98842.16;;;19.98;28.38
38880;BME280;25887;30.194;-97.880;2023-01-20T00:17:08;98838.84;;;19.93;28.21
38880;BME280;25887;30.194;-97.880;2023-01-20T00:19:33;98852.81;;;19.90;28.19
38880;BME280;25887;30.194;-97.880;2023-01-20T00:21:59;98860.78;;;19.86;28.26
38880;BME280;25887;30.194;-97.880;2023-01-20T00:24:25;98854.81;;;19.82;28.21
38880;BME280;25887;30.194;-97.880;2023-01-20T00:26:51;98847.97;;;19.78;28.41
38880;BME280;25887;30.194;-97.880;2023-01-20T00:29:17;98854.19;;;19.74;28.44
38880;BME280;25887;30.194;-97.880;2023-01-20T00:31:43;98860.41;;;19.70;28.33
38880;BME280;25887;30.194;-97.880;2023-01-20T00:34:09;98864.03;;;19.64;28.38
38880;BME280;25887;30.194;-97.880;2023-01-20T00:36:36;98869.41;;;19.58;28.32
38880;BME280;25887;30.194;-97.880;2023-01-20T00:39:02;98879.03;;;19.55;28.35
38880;BME280;25887;30.194;-97.880;2023-01-20T00:41:30;98870.50;;;19.49;28.32
38880;BME280;25887;30.194;-97.880;2023-01-20T00:43:56;98865.41;;;19.45;28.36
38880;BME280;25887;30.194;-97.880;2023-01-20T00:46:22;98873.31;;;19.42;28.48
38880;BME280;25887;30.194;-97.880;2023-01-20T00:48:48;98873.41;;;19.39;28.48
38880;BME280;25887;30.194;-97.880;2023-01-20T00:51:14;98873.53;;;19.34;28.39
38880;BME280;25887;30.194;-97.880;2023-01-20T00:53:40;98862.38;;;19.29;28.30
38880;BME280;25887;30.194;-97.880;2023-01-20T00:56:06;98874.63;;;19.26;28.46
38880;BME280;25887;30.194;-97.880;2023-01-20T00:58:32;98879.09;;;19.20;28.52
38880;BME280;25887;30.194;-97.880;2023-01-20T01:00:57;98889.66;;;19.16;28.53
38880;BME280;25887;30.194;-97.880;2023-01-20T01:03:23;98893.22;;;19.12;28.44
38880;BME280;25887;30.194;-97.880;2023-01-20T01:05:49;98902.03;;;19.08;28.60
38880;BME280;25887;30.194;-97.880;2023-01-20T01:08:15;98902.13;;;19.03;28.57
38880;BME280;25887;30.194;-97.880;2023-01-20T01:10:41;98901.38;;;19.00;28.50
38880;BME280;25887;30.194;-97.880;2023-01-20T01:13:08;98902.28;;;18.97;28.51
38880;BME280;25887;30.194;-97.880;2023-01-20T01:15:34;98905.06;;;18.91;28.54
38880;BME280;25887;30.194;-97.880;2023-01-20T01:18:00;98906.94;;;18.86;28.69
38880;BME280;25887;30.194;-97.880;2023-01-20T01:20:26;98908.72;;;18.82;28.52
38880;BME280;25887;30.194;-97.880;2023-01-20T01:22:52;98906.31;;;18.76;28.89
38880;BME280;25887;30.194;-97.880;2023-01-20T01:25:18;98907.22;;;18.74;28.74
38880;BME280;25887;30.194;-97.880;2023-01-20T01:27:44;98900.41;;;18.70;28.68
38880;BME280;25887;30.194;-97.880;2023-01-20T01:30:10;98897.00;;;18.66;28.68
38880;BME280;25887;30.194;-97.880;2023-01-20T01:32:36;98901.41;;;18.62;28.61
38880;BME280;25887;30.194;-97.880;2023-01-20T01:35:02;98906.69;;;18.58;28.73
38880;BME280;25887;30.194;-97.880;2023-01-20T01:37:28;98910.28;;;18.54;28.63
38880;BME280;25887;30.194;-97.880;2023-01-20T01:39:54;98918.19;;;18.49;28.87
38880;BME280;25887;30.194;-97.880;2023-01-20T01:42:22;98916.56;;;18.44;29.00
38880;BME280;25887;30.194;-97.880;2023-01-20T01:47:32;98912.47;;;18.33;28.97
38880;BME280;25887;30.194;-97.880;2023-01-20T01:49:58;98908.25;;;18.29;29.02
38880;BME280;25887;30.194;-97.880;2023-01-20T01:52:24;98926.56;;;18.25;29.01
38880;BME280;25887;30.194;-97.880;2023-01-20T01:54:50;98920.59;;;18.20;28.94
38880;BME280;25887;30.194;-97.880;2023-01-20T01:57:17;98925.91;;;18.15;28.96
38880;BME280;25887;30.194;-97.880;2023-01-20T01:59:43;98935.53;;;18.10;28.99
38880;BME280;25887;30.194;-97.880;2023-01-20T02:02:09;98933.03;;;18.07;29.12
38880;BME280;25887;30.194;-97.880;2023-01-20T02:04:35;98935.66;;;18.05;29.05
38880;BME280;25887;30.194;-97.880;2023-01-20T02:07:12;98943.50;;;18.02;28.97
38880;BME280;25887;30.194;-97.880;2023-01-20T02:09:40;98941.88;;;17.98;29.08
38880;BME280;25887;30.194;-97.880;2023-01-20T02:12:07;98946.25;;;17.95;29.21
38880;BME280;25887;30.194;-97.880;2023-01-20T02:14:39;98952.44;;;17.91;29.06
38880;BME280;25887;30.194;-97.880;2023-01-20T02:31:30;98953.63;;;17.73;29.35
38880;BME280;25887;30.194;-97.880;2023-01-20T02:39:24;98956.34;;;17.65;29.61
38880;BME280;25887;30.194;-97.880;2023-01-20T02:41:59;98965.91;;;17.63;29.63
38880;BME280;25887;30.194;-97.880;2023-01-20T02:44:39;98972.91;;;17.61;29.49
38880;BME280;25887;30.194;-97.880;2023-01-20T02:47:11;98966.88;;;17.58;29.78
38880;BME280;25887;30.194;-97.880;2023-01-20T02:49:51;98973.81;;;17.57;29.52
38880;BME280;25887;30.194;-97.880;2023-01-20T02:52:20;98977.31;;;17.56;29.60
38880;BME280;25887;30.194;-97.880;2023-01-20T02:54:47;98979.91;;;17.56;29.75
38880;BME280;25887;30.194;-97.880;2023-01-20T02:57:16;98988.59;;;17.55;29.81
38880;BME280;25887;30.194;-97.880;2023-01-20T02:59:44;98995.53;;;17.54;29.91
38880;BME280;25887;30.194;-97.880;2023-01-20T03:02:14;98997.28;;;17.54;29.65
38880;BME280;25887;30.194;-97.880;2023-01-20T03:04:49;98992.13;;;17.52;29.75
38880;BME280;25887;30.194;-97.880;2023-01-20T03:07:20;98999.06;;;17.52;29.66
38880;BME280;25887;30.194;-97.880;2023-01-20T03:09:48;98997.34;;;17.51;29.85
38880;BME280;25887;30.194;-97.880;2023-01-20T03:13:01;98998.22;;;17.48;29.94
38880;BME280;25887;30.194;-97.880;2023-01-20T03:15:07;98996.56;;;17.46;29.91
38880;BME280;25887;30.194;-97.880;2023-01-20T03:17:33;98989.66;;;17.45;29.83
38880;BME280;25887;30.194;-97.880;2023-01-20T03:19:59;98987.09;;;17.43;29.96
38880;BME280;25887;30.194;-97.880;2023-01-20T03:22:41;99001.84;;;17.40;29.99
38880;BME280;25887;30.194;-97.880;2023-01-20T03:25:07;99008.81;;;17.38;30.02
38880;BME280;25887;30.194;-97.880;2023-01-20T03:27:34;99001.06;;;17.35;29.81
38880;BME280;25887;30.194;-97.880;2023-01-20T03:30:00;98997.66;;;17.33;29.79
38880;BME280;25887;30.194;-97.880;2023-01-20T03:35:11;99007.34;;;17.23;29.97
38880;BME280;25887;30.194;-97.880;2023-01-20T03:38:04;99002.19;;;17.21;29.92
38880;BME280;25887;30.194;-97.880;2023-01-20T03:40:30;99005.66;;;17.20;30.04
38880;BME280;25887;30.194;-97.880;2023-01-20T03:43:16;98997.88;;;17.19;30.00
38880;BME280;25887;30.194;-97.880;2023-01-20T03:45:50;98997.03;;;17.18;30.03
38880;BME280;25887;30.194;-97.880;2023-01-20T03:48:23;98992.72;;;17.17;29.99
38880;BME280;25887;30.194;-97.880;2023-01-20T03:56:14;99007.50;;;17.14;30.22
38880;BME280;25887;30.194;-97.880;2023-01-20T03:58:42;99013.56;;;17.11;30.27
38880;BME280;25887;30.194;-97.880;2023-01-20T04:01:11;99009.31;;;17.09;30.11
38880;BME280;25887;30.194;-97.880;2023-01-20T04:03:38;99007.59;;;17.08;30.28
38880;BME280;25887;30.194;-97.880;2023-01-20T04:06:05;99005.03;;;17.06;30.43
38880;BME280;25887;30.194;-97.880;2023-01-20T04:08:41;99013.72;;;17.02;30.25
38880;BME280;25887;30.194;-97.880;2023-01-20T04:11:08;99018.97;;;16.99;30.47
38880;BME280;25887;30.194;-97.880;2023-01-20T04:13:35;99025.06;;;16.98;30.45
38880;BME280;25887;30.194;-97.880;2023-01-20T04:16:09;99019.91;;;16.96;30.24
38880;BME280;25887;30.194;-97.880;2023-01-20T04:18:39;99028.56;;;16.94;30.46
38880;BME280;25887;30.194;-97.880;2023-01-20T04:21:05;99034.66;;;16.93;30.30
38880;BME280;25887;30.194;-97.880;2023-01-20T04:23:32;99046.78;;;16.92;30.49
38880;BME280;25887;30.194;-97.880;2023-01-20T04:26:00;99044.22;;;16.89;30.33
38880;BME280;25887;30.194;-97.880;2023-01-20T04:28:26;99056.34;;;16.87;30.35
38880;BME280;25887;30.194;-97.880;2023-01-20T04:30:52;99044.25;;;16.86;30.34
38880;BME280;25887;30.194;-97.880;2023-01-20T04:33:37;99028.78;;;16.82;30.46
38880;BME280;25887;30.194;-97.880;2023-01-20T04:36:03;99028.78;;;16.79;30.50
38880;BME280;25887;30.194;-97.880;2023-01-20T04:38:29;99038.34;;;16.77;30.39
38880;BME280;25887;30.194;-97.880;2023-01-20T04:40:55;99040.16;;;16.73;30.42
38880;BME280;25887;30.194;-97.880;2023-01-20T04:43:43;99028.97;;;16.66;30.46
38880;BME280;25887;30.194;-97.880;2023-01-20T04:46:10;99032.50;;;16.61;30.57
38880;BME280;25887;30.194;-97.880;2023-01-20T04:51:28;99026.56;;;16.51;30.50
38880;BME280;25887;30.194;-97.880;2023-01-20T04:53:56;99025.78;;;16.46;30.37
38880;BME280;25887;30.194;-97.880;2023-01-20T04:56:23;99026.69;;;16.43;30.65
38880;BME280;25887;30.194;-97.880;2023-01-20T04:58:49;99020.69;;;16.38;30.77
38880;BME280;25887;30.194;-97.880;2023-01-20T05:01:17;99034.56;;;16.36;30.77
38880;BME280;25887;30.194;-97.880;2023-01-20T05:03:43;99033.69;;;16.34;30.64
38880;BME280;25887;30.194;-97.880;2023-01-20T05:06:28;99040.66;;;16.32;30.73
38880;BME280;25887;30.194;-97.880;2023-01-20T05:08:54;99051.06;;;16.29;30.71
38880;BME280;25887;30.194;-97.880;2023-01-20T05:11:20;99048.50;;;16.26;30.86
38880;BME280;25887;30.194;-97.880;2023-01-20T05:13:46;99039.06;;;16.22;30.85
38880;BME280;25887;30.194;-97.880;2023-01-20T05:16:37;99033.94;;;16.15;30.96
38880;BME280;25887;30.194;-97.880;2023-01-20T05:19:03;99033.16;;;16.07;30.90
38880;BME280;25887;30.194;-97.880;2023-01-20T05:21:44;99033.22;;;16.01;30.87
38880;BME280;25887;30.194;-97.880;2023-01-20T05:24:10;99033.31;;;15.97;31.13
38880;BME280;25887;30.194;-97.880;2023-01-20T05:26:36;99034.19;;;15.93;31.10
38880;BME280;25887;30.194;-97.880;2023-01-20T05:29:02;99027.34;;;15.87;31.06
38880;BME280;25887;30.194;-97.880;2023-01-20T05:31:30;99024.84;;;15.81;30.98
38880;BME280;25887;30.194;-97.880;2023-01-20T05:33:56;99035.28;;;15.73;31.13
38880;BME280;25887;30.194;-97.880;2023-01-20T05:36:22;99032.72;;;15.69;31.26
38880;BME280;25887;30.194;-97.880;2023-01-20T05:38:48;99040.56;;;15.61;31.07
38880;BME280;25887;30.194;-97.880;2023-01-20T05:41:13;99041.44;;;15.55;31.20
38880;BME280;25887;30.194;-97.880;2023-01-20T05:43:39;99042.38;;;15.48;31.24
38880;BME280;25887;30.194;-97.880;2023-01-20T05:46:05;99049.34;;;15.43;31.41
38880;BME280;25887;30.194;-97.880;2023-01-20T05:48:31;99051.97;;;15.37;31.19
38880;BME280;25887;30.194;-97.880;2023-01-20T05:50:57;99054.63;;;15.31;31.35
38880;BME280;25887;30.194;-97.880;2023-01-20T05:53:33;99060.72;;;15.27;31.44
38880;BME280;25887;30.194;-97.880;2023-01-20T05:56:00;99066.75;;;15.24;31.35
38880;BME280;25887;30.194;-97.880;2023-01-20T05:58:27;99069.41;;;15.17;31.56
38880;BME280;25887;30.194;-97.880;2023-01-20T06:00:54;99063.44;;;15.10;31.45
38880;BME280;25887;30.194;-97.880;2023-01-20T06:03:20;99069.50;;;15.01;31.48
38880;BME280;25887;30.194;-97.880;2023-01-20T06:05:45;99069.56;;;14.94;31.83
38880;BME280;25887;30.194;-97.880;2023-01-20T06:08:13;99061.84;;;14.88;31.65
38880;BME280;25887;30.194;-97.880;2023-01-20T06:10:39;99051.56;;;14.79;31.39
38880;BME280;25887;30.194;-97.880;2023-01-20T06:13:05;99052.47;;;14.71;31.88
38880;BME280;25887;30.194;-97.880;2023-01-20T06:15:31;99046.47;;;14.65;31.83
38880;BME280;25887;30.194;-97.880;2023-01-20T06:17:56;99038.75;;;14.59;31.98
38880;BME280;25887;30.194;-97.880;2023-01-20T06:20:32;99035.34;;;14.51;31.98
38880;BME280;25887;30.194;-97.880;2023-01-20T06:22:58;99037.91;;;14.44;32.18
38880;BME280;25887;30.194;-97.880;2023-01-20T06:25:23;99034.47;;;14.39;31.81
38880;BME280;25887;30.194;-97.880;2023-01-20T06:27:49;99031.09;;;14.34;31.88
38880;BME280;25887;30.194;-97.880;2023-01-20T06:30:15;99019.03;;;14.29;31.95
38880;BME280;25887;30.194;-97.880;2023-01-20T06:32:41;99012.16;;;14.23;32.24
38880;BME280;25887;30.194;-97.880;2023-01-20T06:35:07;99015.66;;;14.17;32.25
38880;BME280;25887;30.194;-97.880;2023-01-20T06:37:33;99013.94;;;14.12;32.13
38880;BME280;25887;30.194;-97.880;2023-01-20T06:40:05;99013.97;;;14.06;32.40
38880;BME280;25887;30.194;-97.880;2023-01-20T06:42:31;99018.28;;;14.01;32.56
38880;BME280;25887;30.194;-97.880;2023-01-20T06:45:07;99021.75;;;13.97;32.67
38880;BME280;25887;30.194;-97.880;2023-01-20T06:47:33;99023.50;;;13.94;32.24
38880;BME280;25887;30.194;-97.880;2023-01-20T06:49:59;99019.16;;;13.97;32.42
38880;BME280;25887;30.194;-97.880;2023-01-20T06:52:25;99016.59;;;13.97;32.45
38880;BME280;25887;30.194;-97.880;2023-01-20T06:54:51;99020.88;;;13.98;32.50
38880;BME280;25887;30.194;-97.880;2023-01-20T06:57:17;99018.31;;;13.98;32.64
38880;BME280;25887;30.194;-97.880;2023-01-20T06:59:44;99013.97;;;14.00;32.66
38880;BME280;25887;30.194;-97.880;2023-01-20T07:02:13;99019.16;;;14.01;32.57
38880;BME280;25887;30.194;-97.880;2023-01-20T07:04:38;99003.63;;;14.04;33.04
38880;BME280;25887;30.194;-97.880;2023-01-20T07:07:04;98995.03;;;14.04;32.96
38880;BME280;25887;30.194;-97.880;2023-01-20T07:09:30;98989.88;;;14.04;32.74
38880;BME280;25887;30.194;-97.880;2023-01-20T07:11:56;98983.00;;;14.03;32.71
38880;BME280;25887;30.194;-97.880;2023-01-20T07:14:22;98992.44;;;14.04;32.93
38880;BME280;25887;30.194;-97.880;2023-01-20T07:16:47;98994.19;;;14.02;32.78
38880;BME280;25887;30.194;-97.880;2023-01-20T07:19:13;99000.22;;;13.99;32.81
38880;BME280;25887;30.194;-97.880;2023-01-20T07:21:39;99005.41;;;13.96;33.15
38880;BME280;25887;30.194;-97.880;2023-01-20T07:24:05;99007.13;;;13.92;33.12
38880;BME280;25887;30.194;-97.880;2023-01-20T07:26:31;99001.13;;;13.87;32.92
38880;BME280;25887;30.194;-97.880;2023-01-20T07:28:57;98994.22;;;13.83;33.22
38880;BME280;25887;30.194;-97.880;2023-01-20T07:31:24;98989.09;;;13.80;33.31
38880;BME280;25887;30.194;-97.880;2023-01-20T07:33:51;98989.09;;;13.77;33.28
38880;BME280;25887;30.194;-97.880;2023-01-20T07:36:17;99001.16;;;13.75;33.15
38880;BME280;25887;30.194;-97.880;2023-01-20T07:39:00;99012.34;;;13.73;33.31
38880;BME280;25887;30.194;-97.880;2023-01-20T07:41:26;99019.25;;;13.72;33.39
38880;BME280;25887;30.194;-97.880;2023-01-20T07:43:52;99012.38;;;13.71;33.11
38880;BME280;25887;30.194;-97.880;2023-01-20T07:46:18;98997.72;;;13.73;33.49
38880;BME280;25887;30.194;-97.880;2023-01-20T07:48:44;98999.41;;;13.77;33.22
38880;BME280;25887;30.194;-97.880;2023-01-20T07:51:11;98995.13;;;13.79;33.20
38880;BME280;25887;30.194;-97.880;2023-01-20T07:53:38;99001.13;;;13.84;33.63
38880;BME280;25887;30.194;-97.880;2023-01-20T07:56:23;99002.00;;;13.86;33.20
38880;BME280;25887;30.194;-97.880;2023-01-20T07:58:50;98996.81;;;13.89;33.22
38880;BME280;25887;30.194;-97.880;2023-01-20T08:01:23;99007.13;;;13.94;33.48
38880;BME280;25887;30.194;-97.880;2023-01-20T08:03:49;99005.38;;;13.98;33.66
38880;BME280;25887;30.194;-97.880;2023-01-20T08:06:16;99004.53;;;14.02;33.76
38880;BME280;25887;30.194;-97.880;2023-01-20T08:08:43;98992.44;;;14.05;33.27
38880;BME280;25887;30.194;-97.880;2023-01-20T08:11:09;98989.81;;;14.08;33.56
38880;BME280;25887;30.194;-97.880;2023-01-20T08:13:45;98990.69;;;14.12;33.70
38880;BME280;25887;30.194;-97.880;2023-01-20T08:16:29;98991.53;;;14.14;33.70
38880;BME280;25887;30.194;-97.880;2023-01-20T08:18:55;99001.00;;;14.18;33.71
38880;BME280;25887;30.194;-97.880;2023-01-20T08:21:23;99000.09;;;14.22;33.42
38880;BME280;25887;30.194;-97.880;2023-01-20T08:24:08;98997.53;;;14.27;33.53
38880;BME280;25887;30.194;-97.880;2023-01-20T08:26:34;98996.63;;;14.31;33.78
38880;BME280;25887;30.194;-97.880;2023-01-20T08:29:04;98985.44;;;14.33;33.54
38880;BME280;25887;30.194;-97.880;2023-01-20T08:31:33;98985.41;;;14.36;33.49
38880;BME280;25887;30.194;-97.880;2023-01-20T08:33:59;98975.91;;;14.40;33.51
38880;BME280;25887;30.194;-97.880;2023-01-20T08:36:27;98962.97;;;14.43;33.61
38880;BME280;25887;30.194;-97.880;2023-01-20T08:39:07;98963.81;;;14.46;33.59
38880;BME280;25887;30.194;-97.880;2023-01-20T08:41:35;98949.16;;;14.47;33.84
38880;BME280;25887;30.194;-97.880;2023-01-20T08:44:02;98934.53;;;14.47;33.54
38880;BME280;25887;30.194;-97.880;2023-01-20T08:46:29;98941.41;;;14.50;33.63
38880;BME280;25887;30.194;-97.880;2023-01-20T08:48:54;98937.94;;;14.53;33.64
38880;BME280;25887;30.194;-97.880;2023-01-20T08:51:22;98936.19;;;14.53;33.65
38880;BME280;25887;30.194;-97.880;2023-01-20T08:53:48;98937.06;;;14.54;33.53
38880;BME280;25887;30.194;-97.880;2023-01-20T08:56:14;98962.06;;;14.56;33.70
38880;BME280;25887;30.194;-97.880;2023-01-20T08:58:55;98961.19;;;14.56;33.81
38880;BME280;25887;30.194;-97.880;2023-01-20T09:01:25;98962.91;;;14.57;33.67
38880;BME280;25887;30.194;-97.880;2023-01-20T09:03:51;98954.28;;;14.58;33.55
38880;BME280;25887;30.194;-97.880;2023-01-20T09:06:17;98962.91;;;14.58;33.58
38880;BME280;25887;30.194;-97.880;2023-01-20T09:09:02;98980.09;;;14.61;33.61
38880;BME280;25887;30.194;-97.880;2023-01-20T09:11:27;98983.53;;;14.63;33.56
38880;BME280;25887;30.194;-97.880;2023-01-20T09:13:53;98980.94;;;14.63;33.62
38880;BME280;25887;30.194;-97.880;2023-01-20T09:16:54;98987.00;;;14.65;33.56
38880;BME280;25887;30.194;-97.880;2023-01-20T09:19:38;98986.97;;;14.66;33.64
38880;BME280;25887;30.194;-97.880;2023-01-20T09:22:30;98982.66;;;14.67;33.62
38880;BME280;25887;30.194;-97.880;2023-01-20T09:25:05;98967.97;;;14.69;33.69
38880;BME280;25887;30.194;-97.880;2023-01-20T09:27:31;98974.00;;;14.69;33.63
38880;BME280;25887;30.194;-97.880;2023-01-20T09:29:57;98984.38;;;14.71;33.98
38880;BME280;25887;30.194;-97.880;2023-01-20T09:32:23;98985.22;;;14.73;33.60
38880;BME280;25887;30.194;-97.880;2023-01-20T09:34:49;98973.97;;;14.75;33.49
38880;BME280;25887;30.194;-97.880;2023-01-20T09:37:15;98963.59;;;14.77;33.91
38880;BME280;25887;30.194;-97.880;2023-01-20T09:39:59;98967.06;;;14.77;33.78
38880;BME280;25887;30.194;-97.880;2023-01-20T09:45:53;98982.56;;;14.81;33.68
38880;BME280;25887;30.194;-97.880;2023-01-20T09:48:29;98971.31;;;14.83;33.79
38880;BME280;25887;30.194;-97.880;2023-01-20T09:51:23;98992.88;;;14.87;33.68
38880;BME280;25887;30.194;-97.880;2023-01-20T09:54:15;98992.88;;;14.87;33.85
38880;BME280;25887;30.194;-97.880;2023-01-20T09:56:46;99000.63;;;14.88;33.81
38880;BME280;25887;30.194;-97.880;2023-01-20T09:59:21;98993.69;;;14.90;33.64
38880;BME280;25887;30.194;-97.880;2023-01-20T10:01:51;98986.78;;;14.91;33.87
38880;BME280;25887;30.194;-97.880;2023-01-20T10:04:21;98979.03;;;14.91;33.73
38880;BME280;25887;30.194;-97.880;2023-01-20T10:09:58;98991.09;;;14.95;33.78
38880;BME280;25887;30.194;-97.880;2023-01-20T10:12:45;98986.75;;;14.97;33.88
38880;BME280;25887;30.194;-97.880;2023-01-20T10:15:23;98983.28;;;14.99;33.77
38880;BME280;25887;30.194;-97.880;2023-01-20T10:18:01;98986.72;;;14.98;33.82
38880;BME280;25887;30.194;-97.880;2023-01-20T10:25:33;98988.44;;;15.01;33.88
38880;BME280;25887;30.194;-97.880;2023-01-20T10:28:05;98991.00;;;15.01;33.68
38880;BME280;25887;30.194;-97.880;2023-01-20T10:30:52;99002.22;;;15.01;33.71
38880;BME280;25887;30.194;-97.880;2023-01-20T10:33:29;99010.00;;;15.03;33.72
38880;BME280;25887;30.194;-97.880;2023-01-20T10:36:02;99005.69;;;15.03;33.80
38880;BME280;25887;30.194;-97.880;2023-01-20T10:41:17;99003.94;;;15.05;33.85
38880;BME280;25887;30.194;-97.880;2023-01-20T10:43:46;99011.69;;;15.05;33.85
38880;BME280;25887;30.194;-97.880;2023-01-20T10:46:21;99008.22;;;15.07;33.78
38880;BME280;25887;30.194;-97.880;2023-01-20T10:49:36;98988.38;;;15.07;33.97
38880;BME280;25887;30.194;-97.880;2023-01-20T10:57:20;98974.59;;;15.07;33.93
38880;BME280;25887;30.194;-97.880;2023-01-20T10:59:49;98994.44;;;15.06;33.97
38880;BME280;25887;30.194;-97.880;2023-01-20T11:04:53;99009.09;;;15.07;33.99
38880;BME280;25887;30.194;-97.880;2023-01-20T11:07:34;99008.22;;;15.07;33.55
38880;BME280;25887;30.194;-97.880;2023-01-20T11:10:11;98999.59;;;15.06;34.04
38880;BME280;25887;30.194;-97.880;2023-01-20T11:12:39;98998.78;;;15.04;33.73
38880;BME280;25887;30.194;-97.880;2023-01-20T11:15:30;98997.91;;;15.03;34.01
38880;BME280;25887;30.194;-97.880;2023-01-20T11:25:52;98991.06;;;14.96;33.92
38880;BME280;25887;30.194;-97.880;2023-01-20T11:28:18;99004.00;;;14.96;33.94
38880;BME280;25887;30.194;-97.880;2023-01-20T11:33:30;98993.66;;;14.96;34.09
38880;BME280;25887;30.194;-97.880;2023-01-20T11:35:56;98989.34;;;14.95;33.97
38880;BME280;25887;30.194;-97.880;2023-01-20T11:38:24;98996.25;;;14.93;34.12
38880;BME280;25887;30.194;-97.880;2023-01-20T11:40:54;99012.66;;;14.92;33.93
38880;BME280;25887;30.194;-97.880;2023-01-20T11:43:26;99005.75;;;14.91;34.20
38880;BME280;25887;30.194;-97.880;2023-01-20T11:45:54;98998.84;;;14.92;34.05
38880;BME280;25887;30.194;-97.880;2023-01-20T11:48:33;98997.13;;;14.92;33.90
38880;BME280;25887;30.194;-97.880;2023-01-20T11:51:02;98985.94;;;14.90;33.93
38880;BME280;25887;30.194;-97.880;2023-01-20T11:53:29;98987.66;;;14.91;34.03
38880;BME280;25887;30.194;-97.880;2023-01-20T11:56:05;98998.00;;;14.91;34.00
38880;BME280;25887;30.194;-97.880;2023-01-20T11:58:49;99023.84;;;14.93;34.21
38880;BME280;25887;30.194;-97.880;2023-01-20T12:02:20;99010.94;;;14.91;34.13
38880;BME280;25887;30.194;-97.880;2023-01-20T12:04:49;99027.28;;;14.93;34.04
38880;BME280;25887;30.194;-97.880;2023-01-20T12:07:14;99039.38;;;14.94;34.17
38880;BME280;25887;30.194;-97.880;2023-01-20T12:09:42;99025.59;;;14.95;34.23
38880;BME280;25887;30.194;-97.880;2023-01-20T12:14:39;99026.47;;;14.94;34.25
38880;BME280;25887;30.194;-97.880;2023-01-20T12:22:17;99030.75;;;14.92;34.14
38880;BME280;25887;30.194;-97.880;2023-01-20T12:24:50;99033.34;;;14.92;34.27
38880;BME280;25887;30.194;-97.880;2023-01-20T12:27:39;99047.16;;;14.91;34.17
38880;BME280;25887;30.194;-97.880;2023-01-20T12:30:14;99050.63;;;14.90;34.16
38880;BME280;25887;30.194;-97.880;2023-01-20T12:32:40;99052.31;;;14.91;34.27
38880;BME280;25887;30.194;-97.880;2023-01-20T12:35:11;99056.66;;;14.91;34.07
38880;BME280;25887;30.194;-97.880;2023-01-20T12:37:49;99064.44;;;14.89;34.19
38880;BME280;25887;30.194;-97.880;2023-01-20T12:40:31;99059.25;;;14.89;34.23
38880;BME280;25887;30.194;-97.880;2023-01-20T12:43:07;99067.84;;;14.91;34.11
38880;BME280;25887;30.194;-97.880;2023-01-20T12:45:43;99065.25;;;14.91;34.19
38880;BME280;25887;30.194;-97.880;2023-01-20T12:48:22;99073.88;;;14.93;34.31
38880;BME280;25887;30.194;-97.880;2023-01-20T12:53:38;99060.94;;;14.93;34.19
38880;BME280;25887;30.194;-97.880;2023-01-20T13:04:21;99059.25;;;14.89;34.12
38880;BME280;25887;30.194;-97.880;2023-01-20T13:14:26;99096.38;;;14.82;33.87
38880;BME280;25887;30.194;-97.880;2023-01-20T13:16:58;99099.84;;;14.80;33.96
38880;BME280;25887;30.194;-97.880;2023-01-20T13:19:29;99098.13;;;14.80;34.07
38880;BME280;25887;30.194;-97.880;2023-01-20T13:22:00;99110.19;;;14.80;33.89
38880;BME280;25887;30.194;-97.880;2023-01-20T13:24:27;99103.28;;;14.82;34.04
38880;BME280;25887;30.194;-97.880;2023-01-20T13:26:56;99101.56;;;14.81;33.98
38880;BME280;25887;30.194;-97.880;2023-01-20T13:34:59;99108.47;;;14.77;33.85
38880;BME280;25887;30.194;-97.880;2023-01-20T13:40:00;99138.63;;;14.78;33.78
38880;BME280;25887;30.194;-97.880;2023-01-20T13:50:21;99137.72;;;14.85;33.90
38880;BME280;25887;30.194;-97.880;2023-01-20T13:58:30;99130.84;;;14.83;33.98
38880;BME280;25887;30.194;-97.880;2023-01-20T14:00:58;99150.69;;;14.82;33.67
38880;BME280;25887;30.194;-97.880;2023-01-20T14:03:29;99174.81;;;14.84;33.97
38880;BME280;25887;30.194;-97.880;2023-01-20T14:08:25;99174.81;;;14.84;33.84
38880;BME280;25887;30.194;-97.880;2023-01-20T14:11:02;99172.22;;;14.84;34.03
38880;BME280;25887;30.194;-97.880;2023-01-20T14:13:28;99163.63;;;14.84;33.80
38880;BME280;25887;30.194;-97.880;2023-01-20T14:15:54;99164.47;;;14.84;33.97
38880;BME280;25887;30.194;-97.880;2023-01-20T14:18:24;99167.91;;;14.86;33.81
38880;BME280;25887;30.194;-97.880;2023-01-20T14:20:57;99167.06;;;14.87;33.87
38880;BME280;25887;30.194;-97.880;2023-01-20T14:26:02;99172.22;;;14.86;33.89
38880;BME280;25887;30.194;-97.880;2023-01-20T14:28:29;99180.00;;;14.84;34.02
38880;BME280;25887;30.194;-97.880;2023-01-20T14:33:46;99186.91;;;14.82;33.84
38880;BME280;25887;30.194;-97.880;2023-01-20T14:36:16;99188.66;;;14.80;33.63
38880;BME280;25887;30.194;-97.880;2023-01-20T14:38:42;99204.16;;;14.80;33.92
38880;BME280;25887;30.194;-97.880;2023-01-20T14:41:27;99202.47;;;14.79;33.84
38880;BME280;25887;30.194;-97.880;2023-01-20T14:43:53;99214.53;;;14.79;33.88
38880;BME280;25887;30.194;-97.880;2023-01-20T14:46:22;99212.78;;;14.77;33.83
38880;BME280;25887;30.194;-97.880;2023-01-20T14:49:04;99216.22;;;14.78;33.96
38880;BME280;25887;30.194;-97.880;2023-01-20T14:51:30;99214.50;;;14.77;33.84
38880;BME280;25887;30.194;-97.880;2023-01-20T14:56:45;99216.22;;;14.78;33.80
38880;BME280;25887;30.194;-97.880;2023-01-20T14:59:16;99231.75;;;14.78;33.98
38880;BME280;25887;30.194;-97.880;2023-01-20T15:01:43;99226.56;;;14.78;33.88